createdAt,value
2022-09-24T00:00:09.270Z,2.57
2022-09-24T00:02:56.951Z,3.00
2022-09-24T00:05:45.799Z,2.77
2022-09-24T00:08:33.840Z,2.73
2022-09-24T00:11:21.730Z,2.93
2022-09-24T00:14:09.700Z,3.40
2022-09-24T00:16:57.068Z,3.50
2022-09-24T00:19:44.459Z,3.43
2022-09-24T00:22:33.778Z,4.07
2022-09-24T00:25:38.855Z,3.30
2022-09-24T00:28:26.145Z,3.20
2022-09-24T00:31:13.592Z,3.30
2022-09-24T00:34:01.617Z,2.87
2022-09-24T00:36:49.141Z,3.37
2022-09-24T00:39:38.576Z,3.23
2022-09-24T00:42:26.129Z,3.90
2022-09-24T00:45:13.452Z,3.43
2022-09-24T00:48:00.953Z,3.70
2022-09-24T00:50:49.714Z,3.90
2022-09-24T00:53:37.725Z,3.97
2022-09-24T00:56:26.696Z,3.90
2022-09-24T00:59:23.906Z,3.97
2022-09-24T01:02:12.797Z,3.40
2022-09-24T01:05:00.562Z,3.00
2022-09-24T01:07:49.016Z,2.93
2022-09-24T01:10:54.173Z,3.30
2022-09-24T01:14:10.915Z,3.60
2022-09-24T01:17:14.125Z,3.30
2022-09-24T01:20:32.510Z,2.93
2022-09-24T01:23:48.919Z,3.77
2022-09-24T01:26:51.253Z,3.27
2022-09-24T01:30:04.029Z,3.37
2022-09-24T01:32:56.505Z,3.43
2022-09-24T01:35:48.231Z,3.47
2022-09-24T01:38:41.705Z,3.40
2022-09-24T01:41:29.450Z,3.20
2022-09-24T01:44:18.562Z,3.10
2022-09-24T01:47:09.443Z,3.37
2022-09-24T01:49:57.002Z,4.00
2022-09-24T01:52:50.315Z,3.63
2022-09-24T01:55:45.149Z,3.97
2022-09-24T01:58:41.642Z,3.60
2022-09-24T02:01:33.782Z,2.57
2022-09-24T02:04:23.732Z,3.33
2022-09-24T02:07:16.483Z,3.00
2022-09-24T02:10:03.916Z,2.97
2022-09-24T02:12:57.651Z,3.00
2022-09-24T02:15:51.101Z,3.13
2022-09-24T02:18:42.202Z,2.93
2022-09-24T02:21:33.913Z,3.27
2022-09-24T02:24:26.245Z,3.53
2022-09-24T02:27:14.074Z,2.93
2022-09-24T02:30:01.927Z,3.10
2022-09-24T02:32:52.065Z,2.90
2022-09-24T02:35:40.833Z,2.93
2022-09-24T02:38:29.698Z,2.70
2022-09-24T02:41:17.019Z,2.70
2022-09-24T02:44:05.102Z,2.67
2022-09-24T02:46:52.467Z,2.60
2022-09-24T02:49:39.756Z,2.90
2022-09-24T02:52:27.386Z,2.90
2022-09-24T02:55:16.600Z,2.87
2022-09-24T02:58:04.144Z,2.17
2022-09-24T03:00:51.317Z,2.87
2022-09-24T03:03:38.562Z,2.63
2022-09-24T03:06:26.500Z,2.97
2022-09-24T03:09:14.289Z,3.40
2022-09-24T03:12:03.571Z,2.70
2022-09-24T03:14:50.715Z,2.57
2022-09-24T03:17:37.934Z,2.93
2022-09-24T03:20:25.324Z,2.40
2022-09-24T03:23:12.536Z,2.53
2022-09-24T03:25:59.967Z,2.57
2022-09-24T03:28:48.690Z,2.50
2022-09-24T03:31:35.308Z,2.90
2022-09-24T03:34:22.495Z,2.70
2022-09-24T03:37:09.860Z,2.83
2022-09-24T03:39:57.215Z,2.57
2022-09-24T03:42:44.316Z,2.63
2022-09-24T03:45:33.017Z,2.60
2022-09-24T03:48:22.471Z,2.17
2022-09-24T03:51:12.407Z,2.30
2022-09-24T03:53:59.745Z,2.20
2022-09-24T03:56:46.866Z,2.30
2022-09-24T03:59:34.075Z,2.13
2022-09-24T04:02:22.828Z,2.17
2022-09-24T04:05:10.843Z,2.70
2022-09-24T04:07:58.770Z,2.20
2022-09-24T04:10:47.631Z,2.00
2022-09-24T04:13:35.717Z,2.30
2022-09-24T04:16:24.321Z,1.97
2022-09-24T04:19:14.410Z,2.00
2022-09-24T04:22:01.915Z,1.90
2022-09-24T04:24:49.207Z,2.13
2022-09-24T04:27:36.743Z,2.53
2022-09-24T04:30:25.583Z,2.23
2022-09-24T04:33:12.903Z,2.80
2022-09-24T04:36:01.380Z,3.73
2022-09-24T04:38:48.965Z,3.33
2022-09-24T04:41:36.111Z,3.30
2022-09-24T04:44:23.676Z,3.50
2022-09-24T04:47:11.545Z,3.50
2022-09-24T04:49:59.127Z,3.60
2022-09-24T04:52:48.165Z,3.80
2022-09-24T04:55:37.108Z,3.77
2022-09-24T04:58:24.583Z,2.87
2022-09-24T05:01:13.402Z,3.00
2022-09-24T05:04:01.100Z,2.60
2022-09-24T05:06:48.592Z,2.97
2022-09-24T05:09:37.370Z,2.50
2022-09-24T05:12:25.078Z,2.53
2022-09-24T05:15:12.640Z,2.87
2022-09-24T05:17:59.996Z,2.67
2022-09-24T05:20:47.265Z,2.43
2022-09-24T05:23:35.205Z,2.80
2022-09-24T05:26:42.441Z,3.00
2022-09-24T05:29:29.842Z,2.60
2022-09-24T05:32:20.683Z,2.33
2022-09-24T05:35:09.465Z,2.40
2022-09-24T05:37:56.987Z,2.70
2022-09-24T05:40:50.560Z,2.40
2022-09-24T05:43:39.446Z,2.73
2022-09-24T05:46:27.073Z,2.40
2022-09-24T05:49:14.478Z,2.23
2022-09-24T05:52:02.179Z,2.43
2022-09-24T05:54:49.650Z,2.50
2022-09-24T05:57:37.301Z,2.47
2022-09-24T06:00:26.126Z,2.33
2022-09-24T06:03:15.948Z,2.50
2022-09-24T06:05:47.271Z,3.37
2022-09-24T06:08:17.522Z,2.87
2022-09-24T06:10:48.099Z,2.47
2022-09-24T06:13:20.950Z,2.53
2022-09-24T06:15:51.348Z,2.80
2022-09-24T06:18:20.343Z,2.83
2022-09-24T06:20:49.287Z,2.40
2022-09-24T06:23:18.249Z,2.60
2022-09-24T06:25:51.762Z,2.43
2022-09-24T06:28:20.868Z,2.53
2022-09-24T06:30:51.268Z,2.83
2022-09-24T06:33:20.947Z,2.77
2022-09-24T06:35:50.182Z,2.70
2022-09-24T06:38:20.677Z,3.30
2022-09-24T06:40:49.709Z,3.07
2022-09-24T06:43:19.227Z,2.70
2022-09-24T06:45:48.483Z,2.37
2022-09-24T06:48:18.832Z,2.93
2022-09-24T06:50:48.018Z,2.80
2022-09-24T06:53:17.622Z,2.47
2022-09-24T06:55:47.222Z,2.33
2022-09-24T06:58:20.051Z,2.10
2022-09-24T07:00:58.350Z,3.57
2022-09-24T07:03:30.797Z,2.73
2022-09-24T07:06:04.302Z,3.27
2022-09-24T07:08:34.223Z,2.60
2022-09-24T07:11:03.290Z,2.67
2022-09-24T07:13:33.453Z,2.77
2022-09-24T07:16:03.042Z,2.50
2022-09-24T07:18:33.466Z,2.30
2022-09-24T07:21:02.433Z,2.47
2022-09-24T07:23:31.459Z,2.80
2022-09-24T07:26:01.393Z,2.40
2022-09-24T07:28:30.503Z,2.70
2022-09-24T07:31:01.152Z,2.80
2022-09-24T07:33:33.825Z,2.57
2022-09-24T07:36:07.155Z,2.53
2022-09-24T07:38:36.517Z,2.60
2022-09-24T07:41:31.145Z,3.20
2022-09-24T07:44:00.563Z,3.90
2022-09-24T07:46:30.045Z,4.53
2022-09-24T07:49:00.989Z,4.10
2022-09-24T07:51:36.457Z,3.97
2022-09-24T07:54:05.999Z,3.37
2022-09-24T07:56:44.733Z,3.43
2022-09-24T07:59:20.888Z,3.10
2022-09-24T08:01:50.281Z,3.20
2022-09-24T08:04:21.183Z,4.00
2022-09-24T08:06:51.474Z,4.13
2022-09-24T08:09:22.573Z,3.53
2022-09-24T08:11:53.519Z,3.37
2022-09-24T08:14:38.961Z,3.10
2022-09-24T08:17:08.717Z,3.30
2022-09-24T08:20:06.561Z,3.07
2022-09-24T08:22:36.351Z,2.97
2022-09-24T08:25:06.938Z,2.43
2022-09-24T08:27:37.786Z,3.13
2022-09-24T08:30:14.270Z,3.10
2022-09-24T08:32:48.904Z,3.23
2022-09-24T08:35:19.565Z,3.23
2022-09-24T08:37:53.184Z,3.20
2022-09-24T08:40:27.932Z,3.37
2022-09-24T08:43:10.730Z,3.50
2022-09-24T08:46:04.526Z,3.10
2022-09-24T08:48:38.589Z,3.07
2022-09-24T08:51:19.022Z,2.80
2022-09-24T08:53:56.586Z,2.80
2022-09-24T08:56:45.209Z,2.97
2022-09-24T08:59:30.631Z,3.87
2022-09-24T09:02:20.851Z,3.43
2022-09-24T09:05:07.567Z,3.43
2022-09-24T09:07:46.509Z,3.40
2022-09-24T09:10:26.421Z,3.60
2022-09-24T09:13:01.438Z,2.90
2022-09-24T09:15:34.452Z,3.13
2022-09-24T09:18:13.993Z,3.20
2022-09-24T09:20:45.281Z,3.00
2022-09-24T09:23:20.584Z,3.03
2022-09-24T09:25:55.659Z,3.00
2022-09-24T09:28:27.465Z,2.93
2022-09-24T09:31:08.247Z,2.83
2022-09-24T09:33:56.967Z,2.97
2022-09-24T09:36:47.953Z,3.27
2022-09-24T09:39:37.396Z,2.70
2022-09-24T09:42:23.126Z,3.00
2022-09-24T09:44:52.717Z,2.87
2022-09-24T09:47:36.327Z,3.30
2022-09-24T09:50:12.371Z,3.50
2022-09-24T09:52:41.681Z,3.17
2022-09-24T09:55:23.474Z,3.50
2022-09-24T09:57:53.873Z,3.30
2022-09-24T10:00:29.740Z,3.67
2022-09-24T10:02:59.264Z,3.37
2022-09-24T10:05:32.441Z,3.33
2022-09-24T10:08:02.764Z,2.73
2022-09-24T10:10:33.406Z,2.90
2022-09-24T10:13:13.382Z,2.97
2022-09-24T10:15:52.170Z,3.30
2022-09-24T10:18:32.906Z,3.60
2022-09-24T10:21:08.061Z,3.70
2022-09-24T10:23:41.041Z,4.83
2022-09-24T10:26:12.518Z,4.70
2022-09-24T10:29:06.842Z,5.17
2022-09-24T10:31:45.905Z,4.87
2022-09-24T10:34:27.569Z,5.50
2022-09-24T10:37:10.827Z,5.03
2022-09-24T10:39:41.461Z,5.43
2022-09-24T10:42:29.424Z,4.77
2022-09-24T10:45:07.104Z,4.97
2022-09-24T10:47:44.700Z,4.40
2022-09-24T10:50:35.729Z,4.30
2022-09-24T10:53:16.284Z,4.60
2022-09-24T10:56:00.845Z,4.60
2022-09-24T10:59:00.755Z,4.17
2022-09-24T11:01:43.439Z,3.70
2022-09-24T11:04:49.480Z,3.90
2022-09-24T11:08:03.530Z,3.20
2022-09-24T11:11:19.596Z,3.07
2022-09-24T11:14:11.605Z,3.23
2022-09-24T11:17:09.356Z,3.63
2022-09-24T11:20:06.749Z,3.57
2022-09-24T11:23:05.151Z,4.30
2022-09-24T11:25:55.997Z,3.13
2022-09-24T11:28:46.682Z,3.40
2022-09-24T11:31:35.447Z,3.07
2022-09-24T11:34:37.260Z,3.03
2022-09-24T11:37:23.639Z,2.60
2022-09-24T11:40:21.787Z,2.80
2022-09-24T11:43:16.402Z,3.00
2022-09-24T11:46:04.266Z,2.67
2022-09-24T11:49:09.466Z,3.20
2022-09-24T11:51:54.340Z,2.63
2022-09-24T11:54:36.004Z,2.50
2022-09-24T11:57:16.419Z,2.60
2022-09-24T12:00:06.292Z,2.50
2022-09-24T12:02:44.580Z,3.10
2022-09-24T12:05:33.687Z,2.83
2022-09-24T12:08:15.302Z,2.73
2022-09-24T12:10:54.513Z,2.80
2022-09-24T12:13:43.061Z,4.10
2022-09-24T12:16:23.258Z,8.60
2022-09-24T12:19:17.402Z,9.20
2022-09-24T12:21:58.420Z,5.27
2022-09-24T12:24:58.692Z,4.53
2022-09-24T12:27:36.344Z,3.47
2022-09-24T12:30:46.463Z,3.20
2022-09-24T12:33:33.371Z,2.47
2022-09-24T12:36:22.833Z,2.50
2022-09-24T12:39:13.863Z,2.47
2022-09-24T12:42:13.858Z,2.37
2022-09-24T12:44:56.010Z,2.30
2022-09-24T12:47:40.636Z,2.73
2022-09-24T12:50:31.796Z,2.93
2022-09-24T12:53:27.836Z,2.63
2022-09-24T12:56:32.904Z,1.93
2022-09-24T12:59:24.420Z,1.97
2022-09-24T13:02:34.096Z,2.07
2022-09-24T13:05:54.874Z,2.60
2022-09-24T13:08:46.207Z,7.87
2022-09-24T13:11:37.655Z,6.20
2022-09-24T13:14:27.923Z,4.23
2022-09-24T13:18:28.339Z,4.10
2022-09-24T13:21:09.231Z,2.40
2022-09-24T13:23:53.584Z,2.30
2022-09-24T13:26:38.326Z,2.20
2022-09-24T13:29:37.021Z,2.63
2022-09-24T13:32:15.246Z,3.00
2022-09-24T13:34:49.212Z,2.47
2022-09-24T13:37:46.194Z,2.13
2022-09-24T13:40:44.307Z,2.00
2022-09-24T13:43:29.924Z,2.13
2022-09-24T13:46:00.527Z,2.10
2022-09-24T13:48:36.645Z,2.33
2022-09-24T13:51:11.057Z,1.93
2022-09-24T13:53:45.201Z,1.77
2022-09-24T13:56:16.841Z,2.60
2022-09-24T13:58:51.266Z,2.40
2022-09-24T14:01:24.552Z,2.20
2022-09-24T14:03:56.019Z,2.93
2022-09-24T14:06:35.116Z,2.60
2022-09-24T14:09:05.921Z,2.60
2022-09-24T14:11:36.775Z,2.30
2022-09-24T14:14:18.313Z,2.23
2022-09-24T14:16:47.287Z,2.73
2022-09-24T14:19:17.486Z,2.27
2022-09-24T14:21:50.987Z,2.50
2022-09-24T14:24:24.506Z,2.80
2022-09-24T14:26:56.933Z,2.30
2022-09-24T14:29:33.336Z,2.23
2022-09-24T14:32:04.852Z,2.40
2022-09-24T14:34:37.046Z,2.40
2022-09-24T14:37:12.858Z,2.23
2022-09-24T14:39:44.756Z,2.50
2022-09-24T14:42:23.668Z,2.37
2022-09-24T14:44:55.285Z,2.40
2022-09-24T14:47:28.519Z,2.50
2022-09-24T14:49:58.193Z,4.20
2022-09-24T14:52:31.869Z,2.30
2022-09-24T14:55:17.421Z,2.33
2022-09-24T14:57:49.616Z,3.40
2022-09-24T15:00:28.086Z,2.43
2022-09-24T15:03:02.265Z,2.90
2022-09-24T15:05:31.832Z,2.07
2022-09-24T15:08:28.496Z,2.10
2022-09-24T15:11:00.283Z,5.97
2022-09-24T15:13:35.181Z,3.67
2022-09-24T15:16:16.412Z,2.60
2022-09-24T15:18:45.486Z,2.50
2022-09-24T15:21:14.439Z,3.53
2022-09-24T15:23:43.417Z,5.57
2022-09-24T15:26:12.485Z,2.33
2022-09-24T15:28:41.436Z,2.30
2022-09-24T15:31:11.938Z,1.83
2022-09-24T15:33:40.914Z,1.80
2022-09-24T15:36:12.374Z,2.20
2022-09-24T15:38:41.356Z,3.33
2022-09-24T15:41:10.466Z,2.10
2022-09-24T15:43:39.526Z,1.90
2022-09-24T15:46:08.690Z,2.67
2022-09-24T15:48:39.066Z,2.73
2022-09-24T15:51:13.772Z,3.30
2022-09-24T15:53:44.642Z,3.50
2022-09-24T15:56:13.911Z,4.00
2022-09-24T15:58:42.884Z,3.30
2022-09-24T16:01:18.227Z,2.20
2022-09-24T16:03:48.668Z,2.00
2022-09-24T16:06:17.653Z,2.10
2022-09-24T16:08:46.824Z,2.40
2022-09-24T16:11:16.549Z,3.27
2022-09-24T16:13:45.542Z,2.00
2022-09-24T16:16:14.651Z,2.63
2022-09-24T16:18:43.695Z,1.80
2022-09-24T16:21:14.056Z,2.50
2022-09-24T16:23:43.076Z,2.00
2022-09-24T16:26:12.057Z,2.60
2022-09-24T16:28:40.986Z,2.73
2022-09-24T16:31:10.067Z,2.70
2022-09-24T16:33:40.066Z,2.70
2022-09-24T16:36:10.059Z,3.00
2022-09-24T16:38:41.225Z,2.67
2022-09-24T16:41:10.643Z,2.80
2022-09-24T16:43:39.661Z,2.37
2022-09-24T16:46:11.967Z,2.60
2022-09-24T16:48:44.383Z,2.67
2022-09-24T16:51:13.370Z,2.73
2022-09-24T16:53:48.331Z,5.03
2022-09-24T16:56:19.152Z,4.67
2022-09-24T16:58:48.377Z,3.50
2022-09-24T17:01:19.611Z,2.60
2022-09-24T17:03:52.326Z,2.60
2022-09-24T17:06:23.783Z,2.33
2022-09-24T17:09:12.050Z,2.60
2022-09-24T17:11:41.999Z,2.40
2022-09-24T17:14:12.601Z,2.40
2022-09-24T17:17:00.070Z,2.00
2022-09-24T17:19:47.234Z,2.23
2022-09-24T17:22:34.572Z,2.23
2022-09-24T17:25:23.103Z,2.40
2022-09-24T17:28:12.150Z,2.50
2022-09-24T17:30:59.756Z,2.70
2022-09-24T17:33:47.927Z,2.23
2022-09-24T17:36:37.022Z,2.03
2022-09-24T17:39:24.849Z,2.10
2022-09-24T17:42:13.582Z,2.57
2022-09-24T17:45:01.221Z,2.80
2022-09-24T17:47:57.551Z,2.93
2022-09-24T17:50:45.102Z,2.00
2022-09-24T17:53:34.666Z,2.50
2022-09-24T17:56:24.765Z,2.77
2022-09-24T17:59:15.748Z,2.80
2022-09-24T18:02:06.739Z,2.57
2022-09-24T18:04:54.220Z,2.77
2022-09-24T18:07:41.680Z,2.43
2022-09-24T18:10:29.032Z,3.00
2022-09-24T18:13:17.133Z,2.40
2022-09-24T18:16:08.286Z,2.33
2022-09-24T18:18:56.327Z,2.60
2022-09-24T18:21:44.315Z,3.03
2022-09-24T18:24:31.623Z,3.10
2022-09-24T18:27:18.830Z,2.77
2022-09-24T18:30:11.628Z,3.03
2022-09-24T18:33:00.657Z,2.70
2022-09-24T18:35:47.974Z,2.60
2022-09-24T18:38:35.790Z,2.60
2022-09-24T18:41:25.134Z,2.40
2022-09-24T18:44:12.891Z,3.03
2022-09-24T18:47:00.489Z,2.90
2022-09-24T18:49:49.264Z,3.33
2022-09-24T18:52:36.661Z,9.60
2022-09-24T18:55:25.346Z,7.50
2022-09-24T18:58:13.064Z,5.63
2022-09-24T19:01:01.989Z,4.83
2022-09-24T19:03:49.786Z,6.83
2022-09-24T19:06:40.886Z,7.57
2022-09-24T19:09:28.538Z,9.50
2022-09-24T19:12:16.085Z,7.57
2022-09-24T19:15:04.164Z,5.20
2022-09-24T19:17:53.128Z,4.57
2022-09-24T19:20:41.566Z,4.23
2022-09-24T19:23:30.369Z,4.40
2022-09-24T19:26:21.067Z,5.37
2022-09-24T19:29:08.445Z,5.20
2022-09-24T19:31:55.557Z,5.00
2022-09-24T19:34:43.236Z,4.83
2022-09-24T19:37:32.468Z,4.63
2022-09-24T19:40:21.531Z,4.93
2022-09-24T19:43:09.098Z,4.53
2022-09-24T19:45:58.895Z,4.30
2022-09-24T19:48:49.149Z,4.20
2022-09-24T19:51:37.882Z,3.30
2022-09-24T19:54:25.396Z,3.80
2022-09-24T19:57:14.188Z,3.63
2022-09-24T20:00:02.680Z,4.87
2022-09-24T20:02:52.437Z,3.27
2022-09-24T20:05:43.287Z,3.00
2022-09-24T20:08:30.802Z,3.27
2022-09-24T20:11:21.642Z,3.97
2022-09-24T20:14:11.422Z,2.97
2022-09-24T20:16:58.943Z,3.20
2022-09-24T20:19:46.120Z,3.60
2022-09-24T20:22:34.339Z,2.50
2022-09-24T20:25:42.181Z,2.70
2022-09-24T20:28:33.195Z,2.70
2022-09-24T20:31:22.652Z,3.00
2022-09-24T20:34:10.291Z,3.23
2022-09-24T20:36:59.735Z,3.73
2022-09-24T20:39:47.090Z,3.63
2022-09-24T20:42:34.352Z,3.60
2022-09-24T20:45:21.519Z,3.23
2022-09-24T20:48:10.201Z,3.03
2022-09-24T20:50:57.679Z,3.27
2022-09-24T20:53:45.366Z,2.83
2022-09-24T20:56:32.503Z,3.13
2022-09-24T20:59:20.179Z,3.03
2022-09-24T21:02:08.404Z,3.03
2022-09-24T21:04:57.423Z,3.00
2022-09-24T21:07:44.820Z,3.40
2022-09-24T21:10:32.381Z,3.33
2022-09-24T21:13:21.053Z,3.60
2022-09-24T21:16:09.543Z,4.13
2022-09-24T21:18:57.173Z,4.07
2022-09-24T21:21:46.951Z,5.63
2022-09-24T21:24:34.606Z,4.60
2022-09-24T21:27:22.350Z,4.27
2022-09-24T21:30:10.727Z,6.07
2022-09-24T21:32:57.982Z,14.17
2022-09-24T21:35:45.620Z,11.40
2022-09-24T21:38:34.888Z,6.70
2022-09-24T21:41:23.140Z,5.50
2022-09-24T21:44:14.221Z,4.50
2022-09-24T21:47:01.948Z,4.83
2022-09-24T21:49:49.558Z,5.33
2022-09-24T21:52:39.426Z,4.97
2022-09-24T21:55:30.155Z,5.57
2022-09-24T21:58:17.466Z,4.97
2022-09-24T22:01:14.676Z,4.37
2022-09-24T22:04:07.393Z,3.93
2022-09-24T22:06:55.006Z,4.03
2022-09-24T22:09:42.385Z,3.67
2022-09-24T22:12:31.991Z,4.87
2022-09-24T22:15:21.394Z,4.70
2022-09-24T22:18:09.059Z,5.30
2022-09-24T22:20:57.838Z,5.60
2022-09-24T22:23:45.206Z,5.10
2022-09-24T22:26:33.120Z,6.70
2022-09-24T22:29:21.970Z,6.57
2022-09-24T22:32:09.580Z,6.53
2022-09-24T22:35:14.635Z,5.73
2022-09-24T22:38:02.338Z,5.70
2022-09-24T22:40:51.087Z,5.20
2022-09-24T22:43:38.805Z,5.67
2022-09-24T22:46:28.050Z,5.10
2022-09-24T22:49:16.057Z,5.67
2022-09-24T22:52:03.857Z,7.10
2022-09-24T22:54:51.059Z,6.43
2022-09-24T22:57:38.147Z,8.13
2022-09-24T23:00:25.439Z,6.33
2022-09-24T23:03:14.081Z,6.67
2022-09-24T23:06:01.578Z,5.77
2022-09-24T23:08:49.534Z,6.77
2022-09-24T23:11:37.454Z,5.53
2022-09-24T23:14:25.397Z,6.60
2022-09-24T23:17:12.888Z,5.57
2022-09-24T23:20:01.580Z,6.07
2022-09-24T23:22:49.238Z,6.77
2022-09-24T23:25:36.633Z,6.60
2022-09-24T23:28:23.970Z,5.87
2022-09-24T23:31:15.242Z,5.67
2022-09-24T23:34:03.729Z,5.00
2022-09-24T23:36:52.774Z,5.77
2022-09-24T23:39:40.689Z,6.10
2022-09-24T23:42:27.986Z,6.70
2022-09-24T23:45:15.670Z,5.53
2022-09-24T23:48:03.511Z,6.00
2022-09-24T23:50:51.211Z,5.90
2022-09-24T23:53:41.401Z,6.33
2022-09-24T23:56:29.041Z,5.87
2022-09-24T23:59:16.852Z,6.30
